createdAt,value
2018-05-04T00:00:16.147Z,955.09
2018-05-04T00:01:16.146Z,955.09
2018-05-04T00:02:16.149Z,955.09
2018-05-04T00:03:16.161Z,955.10
2018-05-04T00:04:16.174Z,955.11
2018-05-04T00:05:16.249Z,955.06
2018-05-04T00:06:16.199Z,955.07
2018-05-04T00:07:16.210Z,955.08
2018-05-04T00:08:16.254Z,955.09
2018-05-04T00:09:16.227Z,955.11
2018-05-04T00:10:16.244Z,955.07
2018-05-04T00:11:16.251Z,955.07
2018-05-04T00:12:16.261Z,955.07
2018-05-04T00:13:16.275Z,955.10
2018-05-04T00:14:16.303Z,955.08
2018-05-04T00:15:16.297Z,955.06
2018-05-04T00:16:16.306Z,955.05
2018-05-04T00:17:16.317Z,955.03
2018-05-04T00:18:16.348Z,955.01
2018-05-04T00:19:16.343Z,954.98
2018-05-04T00:20:16.356Z,954.98
2018-05-04T00:21:16.395Z,955.01
2018-05-04T00:22:16.376Z,955.03
2018-05-04T00:23:16.411Z,955.03
2018-05-04T00:24:16.394Z,955.05
2018-05-04T00:25:16.408Z,955.03
2018-05-04T00:26:16.418Z,955.08
2018-05-04T00:27:16.429Z,955.04
2018-05-04T00:28:16.446Z,955.06
2018-05-04T00:29:16.458Z,955.10
2018-05-04T00:30:16.469Z,955.10
2018-05-04T00:31:16.475Z,955.15
2018-05-04T00:32:16.486Z,955.15
2018-05-04T00:33:16.499Z,955.16
2018-05-04T00:34:16.507Z,955.15
2018-05-04T00:35:16.519Z,955.14
2018-05-04T00:36:16.545Z,955.17
2018-05-04T00:37:16.544Z,955.18
2018-05-04T00:38:16.556Z,955.12
2018-05-04T00:39:16.581Z,955.11
2018-05-04T00:40:16.579Z,955.15
2018-05-04T00:41:16.582Z,955.10
2018-05-04T00:42:16.596Z,955.08
2018-05-04T00:43:16.606Z,955.10
2018-05-04T00:44:16.627Z,955.07
2018-05-04T00:45:16.635Z,955.06
2018-05-04T00:46:16.645Z,955.07
2018-05-04T00:47:16.650Z,955.06
2018-05-04T00:48:16.705Z,955.04
2018-05-04T00:49:16.677Z,955.06
2018-05-04T00:50:16.689Z,955.13
2018-05-04T00:51:16.730Z,955.10
2018-05-04T00:52:16.713Z,955.16
2018-05-04T00:53:16.735Z,955.15
2018-05-04T00:54:16.728Z,955.17
2018-05-04T00:55:16.750Z,955.14
2018-05-04T00:56:16.750Z,955.12
2018-05-04T00:57:16.769Z,955.17
2018-05-04T00:58:16.775Z,955.17
2018-05-04T00:59:16.781Z,955.18
2018-05-04T01:00:16.794Z,955.21
2018-05-04T01:01:16.806Z,955.19
2018-05-04T01:02:16.845Z,955.16
2018-05-04T01:03:16.829Z,955.19
2018-05-04T01:04:16.839Z,955.19
2018-05-04T01:05:16.848Z,955.20
2018-05-04T01:06:16.889Z,955.28
2018-05-04T01:07:16.870Z,955.27
2018-05-04T01:08:16.883Z,955.25
2018-05-04T01:09:16.895Z,955.29
2018-05-04T01:10:16.902Z,955.26
2018-05-04T01:11:16.914Z,955.34
2018-05-04T01:12:16.958Z,955.32
2018-05-04T01:13:16.937Z,955.37
2018-05-04T01:14:16.952Z,955.42
2018-05-04T01:15:16.966Z,955.40
2018-05-04T01:16:16.971Z,955.46
2018-05-04T01:17:17.002Z,955.48
2018-05-04T01:18:17.029Z,955.46
2018-05-04T01:19:17.010Z,955.48
2018-05-04T01:20:17.014Z,955.47
2018-05-04T01:21:17.031Z,955.49
2018-05-04T01:22:17.033Z,955.50
2018-05-04T01:23:17.050Z,955.48
2018-05-04T01:24:17.054Z,955.47
2018-05-04T01:25:17.112Z,955.43
2018-05-04T01:26:17.084Z,955.46
2018-05-04T01:27:17.090Z,955.46
2018-05-04T01:28:17.103Z,955.44
2018-05-04T01:29:17.131Z,955.46
2018-05-04T01:30:17.139Z,955.47
2018-05-04T01:31:17.135Z,955.46
2018-05-04T01:32:17.147Z,955.48
2018-05-04T01:33:17.157Z,955.51
2018-05-04T01:34:17.175Z,955.49
2018-05-04T01:35:17.181Z,955.52
2018-05-04T01:36:17.195Z,955.51
2018-05-04T01:37:17.202Z,955.53
2018-05-04T01:38:17.212Z,955.50
2018-05-04T01:39:17.223Z,955.52
2018-05-04T01:40:17.236Z,955.50
2018-05-04T01:41:17.260Z,955.45
2018-05-04T01:42:17.256Z,955.46
2018-05-04T01:43:17.266Z,955.44
2018-05-04T01:44:17.291Z,955.39
2018-05-04T01:45:17.290Z,955.41
2018-05-04T01:46:17.301Z,955.41
2018-05-04T01:47:17.311Z,955.48
2018-05-04T01:48:17.321Z,955.51
2018-05-04T01:49:17.357Z,955.50
2018-05-04T01:50:18.935Z,955.46
2018-05-04T01:51:17.353Z,955.50
2018-05-04T01:52:17.367Z,955.48
2018-05-04T01:53:17.381Z,955.49
2018-05-04T01:54:17.388Z,955.52
2018-05-04T01:55:17.411Z,955.48
2018-05-04T01:56:17.406Z,955.52
2018-05-04T01:57:17.429Z,955.53
2018-05-04T01:58:17.430Z,955.53
2018-05-04T01:59:17.451Z,955.48
2018-05-04T02:00:17.450Z,955.47
2018-05-04T02:01:17.463Z,955.47
2018-05-04T02:02:17.476Z,955.45
2018-05-04T02:03:17.495Z,955.49
2018-05-04T02:04:17.526Z,955.45
2018-05-04T02:05:17.508Z,955.52
2018-05-04T02:06:17.519Z,955.50
2018-05-04T02:07:17.527Z,955.51
2018-05-04T02:08:17.539Z,955.53
2018-05-04T02:09:17.561Z,955.54
2018-05-04T02:10:17.565Z,955.51
2018-05-04T02:11:17.602Z,955.50
2018-05-04T02:12:17.582Z,955.53
2018-05-04T02:13:17.595Z,955.51
2018-05-04T02:14:17.606Z,955.57
2018-05-04T02:15:17.618Z,955.60
2018-05-04T02:16:17.640Z,955.57
2018-05-04T02:17:17.635Z,955.58
2018-05-04T02:18:17.650Z,955.61
2018-05-04T02:19:17.660Z,955.61
2018-05-04T02:20:17.701Z,955.56
2018-05-04T02:21:17.685Z,955.58
2018-05-04T02:22:17.694Z,955.55
2018-05-04T02:23:17.713Z,955.54
2018-05-04T02:24:17.715Z,955.54
2018-05-04T02:25:17.726Z,955.53
2018-05-04T02:26:17.737Z,955.59
2018-05-04T02:27:17.763Z,955.53
2018-05-04T02:28:17.759Z,955.54
2018-05-04T02:29:17.770Z,955.59
2018-05-04T02:30:17.781Z,955.57
2018-05-04T02:31:17.798Z,955.53
2018-05-04T02:32:17.801Z,955.55
2018-05-04T02:33:17.813Z,955.55
2018-05-04T02:34:17.820Z,955.55
2018-05-04T02:35:17.835Z,955.57
2018-05-04T02:36:17.843Z,955.54
2018-05-04T02:37:17.859Z,955.55
2018-05-04T02:38:17.871Z,955.55
2018-05-04T02:39:17.879Z,955.55
2018-05-04T02:40:17.886Z,955.61
2018-05-04T02:41:17.912Z,955.60
2018-05-04T02:42:17.915Z,955.64
2018-05-04T02:43:17.955Z,955.65
2018-05-04T02:44:17.962Z,955.66
2018-05-04T02:45:17.946Z,955.70
2018-05-04T02:46:26.046Z,955.64
2018-05-04T02:48:22.510Z,955.61
2018-05-04T02:49:22.704Z,955.65
2018-05-04T02:51:27.478Z,955.67
2018-05-04T02:52:27.349Z,955.67
2018-05-04T02:54:31.903Z,955.59
2018-05-04T02:55:31.569Z,955.58
2018-05-04T02:57:36.271Z,955.51
2018-05-04T02:58:36.396Z,955.48
2018-05-04T03:00:41.033Z,955.45
2018-05-04T03:01:40.588Z,955.47
2018-05-04T03:03:45.335Z,955.53
2018-05-04T03:04:45.459Z,955.60
2018-05-04T03:06:49.780Z,955.60
2018-05-04T03:07:50.127Z,955.58
2018-05-04T03:09:43.441Z,955.54
2018-05-04T03:10:43.667Z,955.47
2018-05-04T03:12:48.154Z,955.51
2018-05-04T03:13:47.750Z,955.50
2018-05-04T03:15:52.531Z,955.47
2018-05-04T03:16:52.676Z,955.45
2018-05-04T03:18:57.223Z,955.39
2018-05-04T03:19:56.782Z,955.35
2018-05-04T03:22:02.328Z,955.40
2018-05-04T03:23:02.726Z,955.40
2018-05-04T03:25:07.814Z,955.41
2018-05-04T03:26:07.844Z,955.41
2018-05-04T03:28:12.714Z,955.39
2018-05-04T03:29:12.304Z,955.40
2018-05-04T03:31:18.317Z,955.47
2018-05-04T03:32:17.812Z,955.43
2018-05-04T03:33:17.951Z,955.49
2018-05-04T03:34:17.853Z,955.51
2018-05-04T03:35:17.920Z,955.51
2018-05-04T03:36:17.927Z,955.51
2018-05-04T03:37:17.868Z,955.55
2018-05-04T03:38:17.905Z,955.59
2018-05-04T03:39:17.886Z,955.57
2018-05-04T03:40:17.929Z,955.62
2018-05-04T03:41:17.915Z,955.61
2018-05-04T03:42:17.919Z,955.58
2018-05-04T03:43:17.932Z,955.62
2018-05-04T03:44:17.942Z,955.65
2018-05-04T03:45:17.957Z,955.58
2018-05-04T03:46:17.962Z,955.56
2018-05-04T03:47:17.971Z,955.54
2018-05-04T03:48:17.991Z,955.55
2018-05-04T03:49:18.002Z,955.60
2018-05-04T03:50:18.011Z,955.60
2018-05-04T03:51:18.015Z,955.57
2018-05-04T03:52:18.029Z,955.55
2018-05-04T03:53:18.037Z,955.59
2018-05-04T03:54:18.049Z,955.60
2018-05-04T03:55:18.054Z,955.64
2018-05-04T03:56:18.067Z,955.64
2018-05-04T03:57:18.091Z,955.66
2018-05-04T03:58:18.087Z,955.66
2018-05-04T03:59:18.104Z,955.65
2018-05-04T04:00:18.109Z,955.68
2018-05-04T04:01:18.157Z,955.68
2018-05-04T04:02:18.131Z,955.70
2018-05-04T04:03:18.141Z,955.73
2018-05-04T04:04:18.154Z,955.73
2018-05-04T04:05:18.163Z,955.74
2018-05-04T04:06:18.176Z,955.69
2018-05-04T04:07:18.183Z,955.72
2018-05-04T04:08:18.213Z,955.74
2018-05-04T04:09:18.206Z,955.75
2018-05-04T04:10:18.291Z,955.74
2018-05-04T04:11:18.227Z,955.74
2018-05-04T04:12:18.244Z,955.75
2018-05-04T04:13:18.247Z,955.69
2018-05-04T04:14:18.269Z,955.66
2018-05-04T04:15:18.273Z,955.69
2018-05-04T04:16:18.279Z,955.69
2018-05-04T04:17:18.315Z,955.73
2018-05-04T04:18:18.380Z,955.70
2018-05-04T04:19:18.339Z,955.69
2018-05-04T04:20:18.394Z,955.70
2018-05-04T04:21:18.341Z,955.71
2018-05-04T04:22:18.370Z,955.70
2018-05-04T04:23:18.355Z,955.66
2018-05-04T04:24:18.400Z,955.62
2018-05-04T04:25:18.375Z,955.65
2018-05-04T04:26:18.384Z,955.61
2018-05-04T04:27:18.392Z,955.60
2018-05-04T04:28:18.499Z,955.65
2018-05-04T04:29:18.456Z,955.63
2018-05-04T04:30:18.423Z,955.61
2018-05-04T04:31:18.440Z,955.62
2018-05-04T04:32:18.460Z,955.60
2018-05-04T04:33:18.462Z,955.63
2018-05-04T04:34:18.463Z,955.62
2018-05-04T04:35:18.472Z,955.63
2018-05-04T04:36:18.487Z,955.65
2018-05-04T04:37:18.498Z,955.64
2018-05-04T04:38:18.536Z,955.66
2018-05-04T04:39:18.521Z,955.68
2018-05-04T04:40:18.531Z,955.71
2018-05-04T04:41:18.622Z,955.76
2018-05-04T04:42:18.547Z,955.79
2018-05-04T04:43:18.573Z,955.73
2018-05-04T04:44:18.571Z,955.75
2018-05-04T04:45:18.583Z,955.75
2018-05-04T04:46:18.639Z,955.80
2018-05-04T04:47:18.598Z,955.77
2018-05-04T04:48:18.615Z,955.75
2018-05-04T04:49:18.623Z,955.81
2018-05-04T04:50:18.642Z,955.82
2018-05-04T04:51:18.646Z,955.86
2018-05-04T04:52:18.781Z,955.87
2018-05-04T04:53:18.680Z,955.89
2018-05-04T04:54:18.697Z,955.91
2018-05-04T04:55:18.684Z,955.91
2018-05-04T04:56:18.707Z,955.92
2018-05-04T04:57:18.713Z,955.92
2018-05-04T04:58:18.711Z,955.92
2018-05-04T04:59:18.725Z,955.90
2018-05-04T05:00:18.742Z,955.89
2018-05-04T05:01:18.756Z,955.87
2018-05-04T05:02:18.754Z,955.91
2018-05-04T05:03:18.763Z,955.94
2018-05-04T05:04:18.777Z,955.94
2018-05-04T05:05:18.787Z,955.95
2018-05-04T05:06:18.792Z,955.88
2018-05-04T05:07:18.805Z,955.91
2018-05-04T05:08:18.863Z,955.88
2018-05-04T05:09:18.830Z,955.92
2018-05-04T05:10:18.837Z,955.87
2018-05-04T05:11:18.870Z,955.92
2018-05-04T05:12:18.868Z,955.93
2018-05-04T05:13:18.949Z,955.94
2018-05-04T05:14:18.930Z,955.88
2018-05-04T05:15:28.971Z,955.92
2018-05-04T05:17:24.546Z,956.03
2018-05-04T05:18:33.189Z,956.05
2018-05-04T05:20:37.626Z,956.02
2018-05-04T05:21:36.779Z,955.99
2018-05-04T05:23:45.969Z,956.06
2018-05-04T05:24:33.282Z,956.05
2018-05-04T05:26:37.837Z,956.04
2018-05-04T05:27:37.917Z,956.06
2018-05-04T05:29:31.144Z,955.99
2018-05-04T05:30:39.172Z,956.01
2018-05-04T05:32:35.713Z,955.98
2018-05-04T05:33:35.986Z,955.95
2018-05-04T05:35:42.485Z,955.90
2018-05-04T05:36:50.613Z,955.93
2018-05-04T05:38:47.231Z,955.99
2018-05-04T05:39:55.794Z,956.02
2018-05-04T05:41:52.577Z,956.01
2018-05-04T05:42:52.452Z,956.05
2018-05-04T05:44:57.169Z,956.02
2018-05-04T05:46:06.160Z,956.02
2018-05-04T05:48:01.531Z,955.99
2018-05-04T05:49:10.049Z,956.01
2018-05-04T05:51:06.852Z,956.01
2018-05-04T05:52:05.726Z,956.00
2018-05-04T05:54:11.732Z,956.00
2018-05-04T05:55:13.091Z,956.02
2018-05-04T05:57:16.315Z,956.04
2018-05-04T05:58:15.673Z,956.02
2018-05-04T06:00:11.955Z,955.96
2018-05-04T06:01:20.967Z,955.91
2018-05-04T06:03:17.462Z,955.95
2018-05-04T06:04:17.511Z,955.90
2018-05-04T06:06:22.021Z,955.98
2018-05-04T06:07:21.986Z,955.97
2018-05-04T06:09:15.423Z,956.02
2018-05-04T06:10:15.606Z,956.04
2018-05-04T06:11:15.525Z,955.97
2018-05-04T06:12:15.699Z,956.05
2018-05-04T06:13:15.578Z,956.09
2018-05-04T06:14:15.469Z,956.08
2018-05-04T06:15:15.537Z,956.07
2018-05-04T06:16:15.511Z,956.10
2018-05-04T06:17:15.493Z,956.04
2018-05-04T06:18:15.542Z,956.06
2018-05-04T06:19:15.516Z,956.13
2018-05-04T06:20:15.721Z,956.17
2018-05-04T06:21:15.556Z,956.14
2018-05-04T06:22:15.644Z,956.22
2018-05-04T06:23:15.563Z,956.21
2018-05-04T06:24:15.563Z,956.25
2018-05-04T06:25:15.806Z,956.22
2018-05-04T06:26:25.839Z,956.32
2018-05-04T06:28:20.612Z,956.25
2018-05-04T06:29:22.125Z,956.18
2018-05-04T06:31:26.706Z,956.07
2018-05-04T06:32:27.042Z,956.12
2018-05-04T06:34:32.265Z,956.14
2018-05-04T06:35:32.345Z,956.14
2018-05-04T06:36:32.679Z,956.13
2018-05-04T06:37:32.485Z,956.17
2018-05-04T06:38:32.249Z,956.26
2018-05-04T06:39:32.324Z,956.28
2018-05-04T06:40:32.278Z,956.32
2018-05-04T06:41:32.281Z,956.28
2018-05-04T06:42:32.291Z,956.30
2018-05-04T06:43:32.300Z,956.26
2018-05-04T06:44:32.315Z,956.27
2018-05-04T06:45:32.322Z,956.20
2018-05-04T06:46:32.336Z,956.18
2018-05-04T06:47:32.368Z,956.18
2018-05-04T06:48:32.359Z,956.15
2018-05-04T06:49:32.372Z,956.13
2018-05-04T06:50:32.382Z,956.17
2018-05-04T06:51:32.393Z,956.20
2018-05-04T06:52:32.401Z,956.22
2018-05-04T06:53:32.410Z,956.30
2018-05-04T06:54:32.449Z,956.36
2018-05-04T06:55:32.446Z,956.36
2018-05-04T06:56:32.451Z,956.42
2018-05-04T06:57:32.502Z,956.44
2018-05-04T06:58:32.466Z,956.54
2018-05-04T06:59:32.478Z,956.58
2018-05-04T07:00:32.506Z,956.55
2018-05-04T07:01:32.533Z,956.54
2018-05-04T07:02:32.508Z,956.50
2018-05-04T07:03:32.522Z,956.39
2018-05-04T07:04:32.605Z,956.38
2018-05-04T07:05:32.545Z,956.34
2018-05-04T07:06:32.648Z,956.38
2018-05-04T07:07:41.697Z,956.37
2018-05-04T07:09:34.181Z,956.37
2018-05-04T07:10:26.426Z,956.49
2018-05-04T07:12:30.610Z,956.40
2018-05-04T07:13:30.802Z,956.37
2018-05-04T07:15:35.120Z,956.40
2018-05-04T07:16:35.436Z,956.42
2018-05-04T07:18:28.994Z,956.36
2018-05-04T07:19:28.591Z,956.41
2018-05-04T07:20:28.794Z,956.41
2018-05-04T07:21:29.028Z,956.37
2018-05-04T07:22:28.824Z,956.34
2018-05-04T07:23:28.855Z,956.35
2018-05-04T07:24:28.649Z,956.34
2018-05-04T07:25:28.668Z,956.33
2018-05-04T07:26:28.674Z,956.35
2018-05-04T07:27:28.697Z,956.35
2018-05-04T07:28:28.698Z,956.35
2018-05-04T07:29:28.705Z,956.27
2018-05-04T07:30:28.717Z,956.37
2018-05-04T07:31:28.725Z,956.32
2018-05-04T07:32:28.741Z,956.33
2018-05-04T07:33:28.756Z,956.33
2018-05-04T07:34:28.767Z,956.30
2018-05-04T07:35:28.771Z,956.25
2018-05-04T07:36:28.779Z,956.23
2018-05-04T07:37:28.823Z,956.24
2018-05-04T07:38:28.804Z,956.24
2018-05-04T07:39:28.816Z,956.30
2018-05-04T07:40:28.825Z,956.34
2018-05-04T07:41:28.877Z,956.37
2018-05-04T07:42:28.852Z,956.30
2018-05-04T07:43:28.862Z,956.29
2018-05-04T07:44:28.873Z,956.27
2018-05-04T07:45:28.890Z,956.31
2018-05-04T07:46:28.899Z,956.27
2018-05-04T07:47:28.926Z,956.23
2018-05-04T07:48:28.949Z,956.27
2018-05-04T07:49:28.929Z,956.24
2018-05-04T07:50:28.961Z,956.25
2018-05-04T07:51:28.978Z,956.27
2018-05-04T07:52:28.963Z,956.20
2018-05-04T07:53:28.976Z,956.21
2018-05-04T07:54:28.987Z,956.19
2018-05-04T07:55:29.003Z,956.15
2018-05-04T07:56:29.011Z,956.18
2018-05-04T07:57:29.020Z,956.12
2018-05-04T07:58:29.034Z,956.14
2018-05-04T07:59:29.044Z,956.13
2018-05-04T08:00:29.068Z,956.11
2018-05-04T08:01:29.076Z,956.14
2018-05-04T08:02:29.083Z,956.18
2018-05-04T08:03:29.091Z,956.16
2018-05-04T08:04:29.104Z,956.15
2018-05-04T08:05:29.114Z,956.20
2018-05-04T08:06:29.128Z,956.20
2018-05-04T08:07:29.136Z,956.20
2018-05-04T08:08:29.213Z,956.24
2018-05-04T08:09:29.159Z,956.21
2018-05-04T08:10:29.171Z,956.23
2018-05-04T08:11:29.214Z,956.29
2018-05-04T08:12:29.200Z,956.33
2018-05-04T08:13:29.206Z,956.28
2018-05-04T08:14:29.221Z,956.35
2018-05-04T08:15:29.230Z,956.26
2018-05-04T08:16:29.251Z,956.28
2018-05-04T08:17:29.253Z,956.34
2018-05-04T08:18:29.281Z,956.31
2018-05-04T08:19:29.286Z,956.34
2018-05-04T08:20:29.289Z,956.34
2018-05-04T08:21:29.304Z,956.32
2018-05-04T08:22:29.337Z,956.29
2018-05-04T08:23:29.353Z,956.29
2018-05-04T08:24:29.335Z,956.27
2018-05-04T08:25:29.345Z,956.34
2018-05-04T08:26:29.368Z,956.31
2018-05-04T08:27:29.430Z,956.32
2018-05-04T08:28:29.383Z,956.33
2018-05-04T08:29:29.397Z,956.35
2018-05-04T08:30:29.437Z,956.32
2018-05-04T08:31:29.447Z,956.36
2018-05-04T08:32:29.433Z,956.35
2018-05-04T08:33:29.441Z,956.35
2018-05-04T08:34:29.469Z,956.38
2018-05-04T08:35:29.559Z,956.41
2018-05-04T08:36:29.476Z,956.42
2018-05-04T08:37:29.488Z,956.39
2018-05-04T08:38:29.500Z,956.39
2018-05-04T08:39:29.517Z,956.37
2018-05-04T08:40:29.528Z,956.41
2018-05-04T08:41:29.535Z,956.43
2018-05-04T08:42:29.562Z,956.40
2018-05-04T08:43:29.562Z,956.39
2018-05-04T08:44:29.579Z,956.40
2018-05-04T08:45:29.585Z,956.50
2018-05-04T08:46:29.596Z,956.58
2018-05-04T08:47:29.611Z,956.70
2018-05-04T08:48:29.618Z,956.73
2018-05-04T08:49:29.635Z,956.75
2018-05-04T08:50:29.647Z,956.78
2018-05-04T08:51:29.661Z,956.74
2018-05-04T08:52:29.671Z,956.80
2018-05-04T08:53:29.681Z,956.81
2018-05-04T08:54:29.695Z,956.77
2018-05-04T08:55:29.708Z,956.82
2018-05-04T08:56:29.719Z,956.82
2018-05-04T08:57:29.743Z,956.79
2018-05-04T08:58:29.744Z,956.80
2018-05-04T08:59:29.762Z,956.85
2018-05-04T09:00:29.768Z,956.79
2018-05-04T09:01:29.793Z,956.78
2018-05-04T09:02:29.799Z,956.83
2018-05-04T09:03:29.833Z,956.80
2018-05-04T09:04:29.819Z,956.83
2018-05-04T09:05:30.129Z,956.88
2018-05-04T09:06:29.845Z,956.82
2018-05-04T09:07:29.859Z,956.82
2018-05-04T09:08:29.882Z,956.88
2018-05-04T09:09:29.881Z,956.81
2018-05-04T09:10:29.894Z,956.84
2018-05-04T09:11:29.950Z,956.88
2018-05-04T09:12:29.935Z,956.92
2018-05-04T09:13:29.942Z,956.91
2018-05-04T09:14:29.950Z,956.91
2018-05-04T09:15:29.989Z,956.87
2018-05-04T09:16:29.977Z,956.85
2018-05-04T09:17:29.994Z,956.80
2018-05-04T09:18:30.002Z,956.72
2018-05-04T09:19:30.021Z,956.79
2018-05-04T09:20:30.030Z,956.81
2018-05-04T09:21:30.046Z,956.85
2018-05-04T09:22:30.060Z,956.80
2018-05-04T09:23:30.072Z,956.82
2018-05-04T09:24:30.086Z,956.96
2018-05-04T09:25:30.098Z,956.86
2018-05-04T09:26:30.108Z,956.88
2018-05-04T09:27:30.128Z,956.98
2018-05-04T09:28:30.144Z,956.96
2018-05-04T09:29:30.151Z,956.98
2018-05-04T09:30:30.182Z,956.99
2018-05-04T09:31:30.183Z,956.99
2018-05-04T09:32:30.189Z,956.93
2018-05-04T09:33:30.203Z,956.96
2018-05-04T09:34:30.216Z,956.95
2018-05-04T09:35:30.234Z,956.84
2018-05-04T09:36:30.267Z,956.85
2018-05-04T09:37:30.279Z,956.91
2018-05-04T09:38:30.271Z,956.89
2018-05-04T09:39:30.290Z,956.93
2018-05-04T09:40:30.298Z,956.92
2018-05-04T09:41:30.341Z,956.83
2018-05-04T09:42:30.324Z,956.84
2018-05-04T09:43:30.376Z,956.93
2018-05-04T09:44:30.351Z,956.89
2018-05-04T09:45:30.364Z,956.97
2018-05-04T09:46:30.387Z,957.03
2018-05-04T09:47:30.392Z,957.08
2018-05-04T09:48:30.408Z,957.05
2018-05-04T09:49:30.419Z,957.10
2018-05-04T09:50:30.434Z,957.10
2018-05-04T09:51:30.452Z,957.06
2018-05-04T09:52:30.470Z,957.11
2018-05-04T09:53:30.838Z,957.06
2018-05-04T09:54:30.487Z,957.08
2018-05-04T09:55:30.508Z,957.01
2018-05-04T09:56:30.513Z,956.98
2018-05-04T09:57:30.527Z,957.00
2018-05-04T09:58:30.574Z,957.08
2018-05-04T09:59:30.561Z,957.14
2018-05-04T10:00:30.573Z,957.22
2018-05-04T10:01:30.588Z,957.22
2018-05-04T10:02:30.631Z,957.21
2018-05-04T10:03:30.652Z,957.17
2018-05-04T10:04:30.626Z,957.13
2018-05-04T10:05:30.642Z,957.20
2018-05-04T10:06:30.688Z,957.20
2018-05-04T10:07:30.667Z,957.19
2018-05-04T10:08:30.776Z,957.22
2018-05-04T10:09:30.696Z,957.24
2018-05-04T10:10:30.715Z,957.20
2018-05-04T10:11:30.755Z,957.15
2018-05-04T10:12:30.742Z,957.17
2018-05-04T10:13:30.757Z,957.20
2018-05-04T10:14:30.769Z,957.24
2018-05-04T10:15:30.784Z,957.27
2018-05-04T10:16:30.806Z,957.31
2018-05-04T10:17:30.812Z,957.29
2018-05-04T10:18:30.829Z,957.27
2018-05-04T10:19:30.843Z,957.27
2018-05-04T10:20:30.863Z,957.26
2018-05-04T10:21:30.871Z,957.24
2018-05-04T10:22:30.886Z,957.19
2018-05-04T10:23:30.932Z,957.23
2018-05-04T10:24:30.974Z,957.21
2018-05-04T10:25:30.931Z,957.25
2018-05-04T10:26:30.952Z,957.29
2018-05-04T10:27:30.961Z,957.30
2018-05-04T10:28:30.978Z,957.29
2018-05-04T10:29:30.995Z,957.16
2018-05-04T10:30:31.050Z,957.25
2018-05-04T10:31:31.185Z,957.29
2018-05-04T10:32:31.037Z,957.20
2018-05-04T10:33:31.111Z,957.15
2018-05-04T10:34:31.067Z,957.18
2018-05-04T10:35:31.166Z,957.18
2018-05-04T10:36:31.120Z,957.26
2018-05-04T10:37:31.111Z,957.17
2018-05-04T10:38:31.208Z,957.11
2018-05-04T10:39:31.143Z,957.02
2018-05-04T10:40:31.162Z,956.92
2018-05-04T10:41:31.180Z,956.96
2018-05-04T10:42:31.192Z,957.01
2018-05-04T10:43:31.208Z,957.08
2018-05-04T10:44:31.220Z,956.94
2018-05-04T10:45:31.239Z,956.98
2018-05-04T10:46:31.250Z,956.87
2018-05-04T10:47:31.282Z,956.92
2018-05-04T10:48:31.283Z,956.85
2018-05-04T10:49:31.310Z,956.77
2018-05-04T10:50:31.317Z,956.72
2018-05-04T10:51:31.333Z,956.73
2018-05-04T10:52:31.345Z,956.70
2018-05-04T10:53:31.364Z,956.77
2018-05-04T10:54:31.382Z,956.79
2018-05-04T10:55:31.394Z,956.83
2018-05-04T10:56:31.405Z,956.82
2018-05-04T10:57:31.427Z,956.85
2018-05-04T10:58:31.440Z,956.81
2018-05-04T10:59:31.451Z,956.80
2018-05-04T11:00:31.496Z,956.83
2018-05-04T11:01:31.483Z,956.85
2018-05-04T11:02:31.496Z,956.73
2018-05-04T11:03:31.510Z,956.81
2018-05-04T11:04:31.527Z,956.98
2018-05-04T11:05:31.544Z,957.18
2018-05-04T11:06:31.560Z,957.13
2018-05-04T11:07:31.570Z,957.00
2018-05-04T11:08:32.808Z,957.05
2018-05-04T11:09:31.602Z,957.12
2018-05-04T11:10:31.615Z,956.93
2018-05-04T11:11:31.634Z,956.90
2018-05-04T11:12:32.585Z,956.99
2018-05-04T11:13:31.675Z,957.06
2018-05-04T11:14:31.678Z,957.06
2018-05-04T11:15:31.801Z,957.00
2018-05-04T11:16:31.712Z,956.88
2018-05-04T11:17:31.721Z,956.89
2018-05-04T11:18:31.739Z,956.79
2018-05-04T11:19:31.870Z,956.81
2018-05-04T11:20:31.769Z,956.79
2018-05-04T11:21:31.784Z,956.71
2018-05-04T11:22:31.811Z,956.69
2018-05-04T11:23:31.941Z,956.70
2018-05-04T11:24:31.833Z,956.64
2018-05-04T11:25:31.909Z,956.67
2018-05-04T11:26:31.862Z,956.67
2018-05-04T11:27:31.876Z,956.66
2018-05-04T11:28:31.928Z,956.67
2018-05-04T11:29:31.911Z,956.74
2018-05-04T11:30:31.920Z,956.66
2018-05-04T11:31:31.935Z,956.71
2018-05-04T11:32:31.963Z,956.69
2018-05-04T11:33:31.964Z,956.66
2018-05-04T11:34:31.978Z,956.62
2018-05-04T11:35:32.006Z,956.68
2018-05-04T11:36:32.012Z,956.75
2018-05-04T11:37:32.033Z,956.75
2018-05-04T11:38:32.039Z,956.77
2018-05-04T11:39:32.051Z,956.80
2018-05-04T11:40:32.070Z,956.79
2018-05-04T11:41:32.093Z,956.80
2018-05-04T11:42:32.122Z,956.83
2018-05-04T11:43:32.144Z,956.81
2018-05-04T11:44:32.129Z,956.82
2018-05-04T11:45:32.140Z,956.84
2018-05-04T11:46:32.153Z,956.86
2018-05-04T11:47:32.179Z,956.83
2018-05-04T11:48:32.196Z,956.89
2018-05-04T11:49:33.013Z,956.91
2018-05-04T11:50:40.055Z,957.01
2018-05-04T11:52:36.776Z,957.06
2018-05-04T11:53:36.861Z,957.10
2018-05-04T11:54:37.111Z,957.17
2018-05-04T11:55:37.001Z,957.19
2018-05-04T11:56:44.750Z,957.16
2018-05-04T11:58:41.529Z,957.19
2018-05-04T11:59:41.693Z,957.21
2018-05-04T12:00:41.600Z,957.24
2018-05-04T12:01:41.478Z,957.23
2018-05-04T12:02:51.046Z,957.25
2018-05-04T12:04:46.413Z,957.16
2018-05-04T12:05:46.263Z,957.21
2018-05-04T12:06:46.342Z,957.29
2018-05-04T12:07:46.370Z,957.22
2018-05-04T12:08:46.265Z,957.23
2018-05-04T12:09:46.194Z,957.05
2018-05-04T12:10:46.306Z,957.06
2018-05-04T12:11:46.232Z,957.42
2018-05-04T12:12:46.226Z,957.41
2018-05-04T12:13:46.242Z,957.47
2018-05-04T12:14:46.285Z,957.36
2018-05-04T12:15:46.268Z,957.36
2018-05-04T12:16:46.329Z,957.54
2018-05-04T12:17:46.301Z,957.45
2018-05-04T12:18:46.316Z,957.51
2018-05-04T12:19:46.354Z,957.50
2018-05-04T12:20:46.392Z,957.65
2018-05-04T12:21:46.372Z,957.53
2018-05-04T12:22:46.445Z,957.24
2018-05-04T12:23:46.398Z,957.16
2018-05-04T12:24:46.411Z,957.14
2018-05-04T12:25:46.430Z,957.58
2018-05-04T12:26:46.457Z,957.49
2018-05-04T12:27:46.459Z,957.69
2018-05-04T12:28:46.487Z,957.47
2018-05-04T12:29:46.491Z,957.22
2018-05-04T12:30:46.508Z,957.30
2018-05-04T12:31:54.384Z,957.75
2018-05-04T12:33:52.085Z,957.52
2018-05-04T12:34:52.117Z,957.68
2018-05-04T12:36:56.619Z,957.90
2018-05-04T12:37:56.686Z,957.75
2018-05-04T12:39:50.218Z,957.77
2018-05-04T12:40:50.434Z,957.92
2018-05-04T12:42:55.769Z,957.72
2018-05-04T12:43:56.016Z,958.12
2018-05-04T12:46:01.329Z,957.76
2018-05-04T12:47:01.554Z,958.09
2018-05-04T12:48:01.614Z,958.34
2018-05-04T12:49:01.433Z,958.74
2018-05-04T12:50:01.631Z,958.89
2018-05-04T12:51:01.433Z,958.99
2018-05-04T12:52:01.419Z,959.53
2018-05-04T12:53:01.447Z,959.46
2018-05-04T12:54:01.453Z,959.29
2018-05-04T12:55:03.248Z,959.69
2018-05-04T12:56:01.484Z,959.95
2018-05-04T12:57:01.501Z,959.89
2018-05-04T12:58:01.528Z,959.91
2018-05-04T12:59:01.539Z,958.89
2018-05-04T13:00:01.686Z,959.50
2018-05-04T13:01:01.575Z,959.11
2018-05-04T13:02:01.600Z,961.88
2018-05-04T13:03:01.621Z,961.98
2018-05-04T13:04:01.638Z,959.52
2018-05-04T13:05:01.662Z,961.24
2018-05-04T13:06:01.707Z,959.98
2018-05-04T13:07:01.714Z,958.25
2018-05-04T13:08:01.728Z,962.00
2018-05-04T13:09:02.099Z,963.65
2018-05-04T13:10:01.803Z,958.99
2018-05-04T13:11:01.794Z,966.77
2018-05-04T13:12:01.829Z,966.12
2018-05-04T13:13:01.837Z,965.61
2018-05-04T13:14:01.866Z,960.77
2018-05-04T13:15:01.935Z,970.32
2018-05-04T13:16:01.903Z,959.75
2018-05-04T13:17:01.929Z,963.26
2018-05-04T13:18:01.950Z,957.42
2018-05-04T13:19:01.992Z,957.58